Dunleith, Mississippi
Current Conditions -  °F | °C
As of 12:53 AM on Thursday 27 Nov 2014 (Local Time) from KGLH Reporting Station
Clear Clear  
Wind Chill: 40°   Ceiling: Unl
Heat Index: 46°   Visibility: 10mi
Dew Point: 31°   Wind: 14mph
Humidity: 56%   Direction: 310°NW
Pressure: 30.27"   Gusts: NA
Location:  33.4469°N, 90.8665°W
Report Text: KGLH 270653Z AUTO 31012KT 10SM CLR 08/M01 A3027 RMK AO2 SLP260 T00781006
Loading
Personal Weather Stations






























Interactive Weather Map New forecast layout! Learn more

10-Day Weather Forecast

Advertisements
Track Severe Weather on mobile